Hlavní strana
METAR-TAF:

METAR-TAF

Letiště :

Hassi Messaoud, Alžírsko

zeměpisná šířka: 31-40N, zeměpisná délka: 006-09E, výška: 142 m

Aktuální stav počasí

Zpráva byla vytvořena před 20 minutami, v 03:00 UTC
Jihojihovýchodní vítr 3 kt
Teplota 19°C
Vlhkost vzduchu 30%
Tlak 1019 hPa
Viditelnost 10 km a více
Žádná oblačnost pod 1500 m, nevyskytují se cumulonimby.

METAR: DAUH 070300Z 16003KT CAVOK 19/01 Q1019

Čas: 04:20 (03:20 UTC)

Předpověď počasí

Zpráva byla vytvořena před 4 hodinami a 20 minutami, v 23:00 UTC
Předpověď platná od 07 v 00 UTC do 07 v 24 UTC
Jihovýchodní vítr 8 kt
Viditelnost 10 km a více
Skoro jasno ve výšce 4000 ft
Pravděpodobnost 30% :
Dočasný
od 07 v 06 UTC do 07 v 12 UTC
Skoro jasno ve výšce 4000 ft, Vertikální cumulus.

TAF: DAUH 062300Z 0700/0724 14008KT 9999 FEW040 PROB30 TEMPO 0706/0712 FEW040TCU

Stav a předpovědi počasí z více než 4 000 letišť (zprávy METAR a TAF).

Červené a žluté tečky na mapě představují dostupné meteorologické stanice.

Když kurzor umístíte na tečku, zobrazí se název stanice.

Pak kliknutím zobrazíte stav a předpověď počasí.

Chcete-li změnit mapu, kliknutím na zelené tlačítko se znaménkem +mapu přiblížíte, kliknutím na zelené tlačítko se znaménkem – mapu oddálíte a kliknutím na zelené šipky přejdete na sousední mapy.


METAR-TAF: